Terminal Aerodrome Forecast
Issued by NWS

Home | Current Version | Previous Version | Text Only | Print | Product List | Glossary On
Versions: 1 2 3 4 5 6 7 8 9 10 11 12
000
FTUS42 TJSJ 211139
TAFJBQ
TAF
TJBQ 211139Z 2112/2212 11003KT P6SM FEW050
     FM211400 09008KT P6SM FEW030 FEW060
     FM211630 07012KT P6SM VCSH SCT025 SCT040
     FM212300 10005KT P6SM FEW030 SCT080=

USA.gov is the U.S. government's official web portal to all federal, state and local government web resources and services.